Strona główna
METAR-TAF:

METAR-TAF

Lotnisko :

Port lotniczy Marsa Alam

Marsa Alam, Egipt

Szerokość geograficzna: 25-33-25N, Długość geograficzna: 34-35-01E, wysokość: 77 m

Aktualna obserwacja pogody

Raport powstał 36 minut temu, godzina 10:00 UTC
Wiatr 17 kt od północ
Temperatura 24°C
Wilgotność 44%
Ciśnienie 1013 hPa
Widzialność 10 km lub więcej
Brak chmur poniżej 1500 m i brak chmur cumulonimbus

METAR: HEMA 101000Z 01017KT CAVOK 24/11 Q1013 NOSIG

czas: 12:36 (10:36 UTC)

Prognoza

Raport powstał 5 godziny i 36 minut temu, godzina 05:00 UTC
Prognoza ważna od 10 godzina 06 UTC do 11 godzina 12 UTC
Wiatr 15 kt od północny zachód w porywach dochodzący do 25 kt
Widzialność 10 km lub więcej
Brak chmur poniżej 1500 m i brak chmur cumulonimbus
Prawdopodobieństwo 30% :
Przejściowo
od 10 godzina 06 UTC do 10 godzina 12 UTC
Widzialność: 4000 m
piasek

TAF: HEMA 100500Z 1006/1112 32015G25KT CAVOK PROB30 TEMPO 1006/1012 4000 SA NSC

Obserwacja i prognoza pogody dla ponad 4000 lotnisk (raport METAR i TAF).

Dostępne stacje oznaczono żółtymi i czerwonymi punktami na mapie.

Najedź kursorem aby zobaczyć nazwę stacji.

Kliknij aby zobaczyć obserwacje i prognozy pogody.

Aby zmienić mapę: kliknij na zielony przycisk z czarnym krzyżykiem, aby powiększyć; na zielony przycisk z myślnikiem, aby pomniejszyć; na zielone strzałki, aby przejść do map sąsiednich.


METAR-TAF: